Time;durP1;ratioP1;P1;durP2;ratioP2;P2;SDS_P1;SDS_P2;PMS_P1;PMS_P2;Temp;Humidity;BMP_temperature;BMP_pressure;BME280_temperature;BME280_humidity;BME280_pressure;Samples;Min_cycle;Max_cycle;Signal;HPM_P1;HPM_P2
2020/12/02 00:00:15;;;;;;;60.55;25.10;;;;;;;-1.65;87.19;100976.75;4992459;28;20061;-77
2020/12/02 00:03:11;;;;;;;59.17;24.85;;;;;;;-1.59;86.99;101001.19;4993328;28;20057;-77
2020/12/02 00:05:42;;;;;;;61.42;25.27;;;;;;;-1.71;87.67;100989.84;4993426;28;20053;-77
2020/12/02 00:08:16;;;;;;;55.88;24.90;;;;;;;-1.78;87.33;100992.41;4992052;28;20085;-78
2020/12/02 00:10:41;;;;;;;;;;;;;;;-1.83;88.15;100999.41;4992461;28;20030;-77
2020/12/02 00:13:10;;;;;;;60.97;24.83;;;;;;;-1.93;88.42;100992.41;4993373;28;19909;-77
2020/12/02 00:15:36;;;;;;;55.97;24.30;;;;;;;-1.96;88.60;100997.59;4993094;28;20461;-76
2020/12/02 00:18:02;;;;;;;60.50;25.60;;;;;;;-2.07;89.08;101000.19;4993528;28;20041;-75
2020/12/02 00:20:27;;;;;;;62.30;25.60;;;;;;;-1.99;88.82;101000.22;4992935;28;20037;-77
2020/12/02 00:22:53;;;;;;;64.28;25.50;;;;;;;-2.10;88.55;100984.50;4992070;28;20038;-77
2020/12/02 00:25:18;;;;;;;67.38;25.90;;;;;;;-2.12;88.83;100990.63;4993397;28;20226;-75
2020/12/02 00:27:44;;;;;;;64.45;26.40;;;;;;;-2.10;88.79;100999.31;4993197;28;20534;-76
2020/12/02 00:30:13;;;;;;;58.95;25.63;;;;;;;-2.10;89.51;100997.59;4993451;28;20089;-77
2020/12/02 00:32:42;;;;;;;61.75;24.58;;;;;;;-2.18;88.88;100982.75;4992799;28;20472;-77
2020/12/02 00:35:14;;;;;;;67.03;26.27;;;;;;;-2.29;89.52;100976.59;4993047;28;20117;-78
2020/12/02 00:37:40;;;;;;;64.13;26.63;;;;;;;-2.28;89.89;100994.03;4992676;28;20104;-78
2020/12/02 00:40:06;;;;;;;66.22;25.83;;;;;;;-2.27;90.07;100995.78;4993199;28;20034;-77
2020/12/02 00:42:32;;;;;;;62.63;26.15;;;;;;;-2.32;89.96;100990.50;4993006;28;20062;-76
2020/12/02 00:44:58;;;;;;;66.70;26.90;;;;;;;-2.58;89.44;100932.06;4992763;28;20066;-77
2020/12/02 00:47:24;;;;;;;58.60;25.48;;;;;;;-2.19;89.54;100988.84;4992468;28;20125;-78
2020/12/02 00:49:52;;;;;;;60.40;25.20;;;;;;;-2.29;89.72;100982.69;4995907;28;20057;-77
2020/12/02 00:52:18;;;;;;;61.05;25.50;;;;;;;-2.28;89.92;100992.28;4995477;28;20085;-77
2020/12/02 00:54:45;;;;;;;65.55;25.48;;;;;;;-2.27;89.85;100982.72;4996148;28;20030;-77
2020/12/02 00:57:13;;;;;;;68.95;27.02;;;;;;;-2.57;90.00;100945.13;4996509;28;20038;-77
2020/12/02 00:59:42;;;;;;;72.00;27.75;;;;;;;-2.48;90.12;100984.38;4996031;28;20042;-77
2020/12/02 01:02:07;;;;;;;67.50;28.02;;;;;;;-2.45;90.80;100989.59;4996553;28;20058;-78
2020/12/02 01:04:35;;;;;;;69.03;28.35;;;;;;;-2.50;90.78;100983.50;4995885;28;20041;-78
2020/12/02 01:07:01;;;;;;;71.63;28.13;;;;;;;-2.57;90.93;100979.09;4996458;28;20081;-78
2020/12/02 01:09:27;;;;;;;70.03;28.20;;;;;;;-2.48;90.70;100979.16;4996090;28;20058;-79
2020/12/02 01:11:56;;;;;;;73.85;29.02;;;;;;;-2.45;90.98;100976.53;4996246;28;20483;-76
2020/12/02 01:14:25;;;;;;;73.57;29.15;;;;;;;-2.50;90.93;100980.88;4996367;28;20380;-78
2020/12/02 01:16:53;;;;;;;74.65;28.83;;;;;;;-2.43;90.74;100977.41;4994578;28;20070;-78
2020/12/02 01:19:24;;;;;;;71.93;28.13;;;;;;;-2.54;91.03;100971.25;4994985;28;20080;-78
2020/12/02 01:21:55;;;;;;;66.35;27.02;;;;;;;-2.51;90.58;100971.31;4995998;28;20442;-76
2020/12/02 01:24:28;;;;;;;72.78;28.13;;;;;;;-2.60;90.98;100966.03;4995946;28;20033;-78
2020/12/02 01:27:13;;;;;;;73.53;27.73;;;;;;;-2.68;91.33;100988.63;4995893;28;20026;-77
2020/12/02 01:29:39;;;;;;;68.72;28.13;;;;;;;-2.97;91.28;100934.50;4995468;28;20114;-77
2020/12/02 01:32:10;;;;;;;68.70;28.05;;;;;;;-2.89;92.12;100961.53;4995985;28;20451;-76
2020/12/02 01:34:35;;;;;;;74.65;27.95;;;;;;;-2.90;92.51;100967.59;4995550;28;20096;-77
2020/12/02 01:37:07;;;;;;;65.07;28.02;;;;;;;-2.85;92.79;100977.19;4978702;28;20038;-75
2020/12/02 01:39:36;;;;;;;71.78;28.35;;;;;;;-2.61;92.05;100974.69;4995267;28;20037;-76
2020/12/02 01:42:05;;;;;;;68.85;27.77;;;;;;;-2.48;91.26;100973.03;4995624;28;20034;-78
2020/12/02 01:44:30;;;;;;;67.88;28.50;;;;;;;-2.55;90.66;100963.44;4995504;28;20046;-77
2020/12/02 01:47:06;;;;;;;71.63;27.77;;;;;;;-2.53;90.34;100973.00;4995409;28;20030;-77
2020/12/02 01:50:15;;;;;;;79.57;28.92;;;;;;;-2.55;90.17;100969.53;4993778;28;20488;-76
2020/12/02 01:52:50;;;;;;;69.25;26.98;;;;;;;-2.70;90.85;100959.88;4984430;28;20133;-78
2020/12/02 01:55:23;;;;;;;66.03;26.90;;;;;;;-2.73;90.80;100953.75;4994574;28;20038;-77
2020/12/02 01:57:53;;;;;;;72.15;29.38;;;;;;;-2.69;90.76;100968.59;4995170;28;20041;-76
2020/12/02 02:00:22;;;;;;;70.43;27.98;;;;;;;-2.96;91.10;100930.16;4995867;28;20044;-76
2020/12/02 02:03:12;;;;;;;67.28;28.98;;;;;;;-2.83;91.63;100973.72;4994991;28;20368;-75
2020/12/02 02:05:54;;;;;;;78.45;29.05;;;;;;;-2.82;92.00;100972.84;4995065;28;20113;-76
2020/12/02 02:08:22;;;;;;;73.47;28.85;;;;;;;-2.74;91.70;100973.78;4995458;28;20030;-76
2020/12/02 02:10:50;;;;;;;67.45;27.45;;;;;;;-2.68;91.31;100972.94;4994732;28;20035;-78
2020/12/02 02:13:21;;;;;;;70.68;27.65;;;;;;;-2.74;91.40;100971.16;4995071;28;20061;-77
2020/12/02 02:15:54;;;;;;;74.10;29.42;;;;;;;-2.79;91.43;100977.25;4994848;28;20120;-75
2020/12/02 02:18:23;;;;;;;69.32;27.60;;;;;;;-2.61;91.20;100966.88;4994790;28;20035;-77
2020/12/02 02:20:57;;;;;;;67.78;27.63;;;;;;;-2.60;90.66;100968.66;4994664;28;20510;-75
2020/12/02 02:23:22;;;;;;;69.25;27.70;;;;;;;-2.67;90.60;100961.63;4995028;28;20534;-74
2020/12/02 02:26:03;;;;;;;70.90;28.38;;;;;;;-2.85;91.24;100966.75;4994531;28;20062;-75
2020/12/02 02:28:32;;;;;;;71.28;29.17;;;;;;;-2.87;91.08;100951.09;4995053;28;20464;-75
2020/12/02 02:30:57;;;;;;;67.95;28.27;;;;;;;-2.79;90.68;100956.34;4994706;28;20035;-75
2020/12/02 02:33:25;;;;;;;71.75;28.15;;;;;;;-2.85;90.72;100954.56;4994685;28;20511;-76
2020/12/02 02:35:51;;;;;;;75.32;28.10;;;;;;;-2.91;90.90;100959.75;4993110;28;20126;-75
2020/12/02 02:38:19;;;;;;;69.75;27.42;;;;;;;-3.00;91.20;100971.00;4994412;28;20391;-75
2020/12/02 02:40:46;;;;;;;72.22;27.35;;;;;;;-3.14;92.14;100962.22;4994412;28;20057;-76
2020/12/02 02:43:12;;;;;;;67.57;27.88;;;;;;;-3.11;92.04;100963.97;4994652;28;20036;-75
2020/12/02 02:45:37;;;;;;;68.32;27.90;;;;;;;-2.95;91.77;100963.22;4994630;28;20384;-75
2020/12/02 02:48:06;;;;;;;72.40;29.02;;;;;;;-3.08;92.09;100962.28;4992791;28;20034;-74
2020/12/02 02:50:36;;;;;;;68.22;26.55;;;;;;;-3.02;91.52;100951.84;4993066;28;20042;-75
2020/12/02 02:53:13;;;;;;;70.28;28.67;;;;;;;-2.84;90.83;100958.06;4993148;28;20487;-76
2020/12/02 02:55:39;;;;;;;67.68;27.40;;;;;;;-2.81;90.39;100955.44;4994153;28;20026;-77
2020/12/02 02:58:05;;;;;;;72.50;28.90;;;;;;;-2.78;90.70;100951.13;4994250;28;20403;-76
2020/12/02 03:00:32;;;;;;;70.63;28.33;;;;;;;-2.80;90.35;100960.69;4993173;28;20030;-77
2020/12/02 03:02:58;;;;;;;75.95;29.33;;;;;;;-3.01;90.88;100958.81;4993770;28;20034;-78
2020/12/02 03:05:24;;;;;;;75.90;29.60;;;;;;;-3.09;91.67;100949.19;4994319;28;20037;-78
2020/12/02 03:07:57;;;;;;;72.55;27.08;;;;;;;-3.01;91.63;100958.81;4993893;28;20038;-77
2020/12/02 03:10:26;;;;;;;74.53;29.25;;;;;;;-2.99;91.61;100957.13;4993361;28;20498;-78
2020/12/02 03:12:51;;;;;;;74.35;28.65;;;;;;;-3.20;91.58;100942.16;4993778;28;20069;-78
2020/12/02 03:15:18;;;;;;;72.85;28.42;;;;;;;-3.23;92.00;100938.69;4992948;28;20070;-77
2020/12/02 03:17:45;;;;;;;76.88;29.42;;;;;;;-3.18;92.21;100955.25;4993960;28;20041;-77
2020/12/02 03:20:37;;;;;;;72.40;27.85;;;;;;;-3.20;92.19;100941.31;4993036;28;20054;-78
2020/12/02 03:23:02;;;;;;;70.63;27.83;;;;;;;-3.37;92.04;100916.84;4994252;28;20053;-77
2020/12/02 03:25:32;;;;;;;75.90;28.30;;;;;;;-3.34;92.47;100935.13;4993815;28;20443;-75
2020/12/02 03:27:58;;;;;;;71.32;27.83;;;;;;;-3.35;91.22;100910.78;4993504;28;20027;-76
2020/12/02 03:30:24;;;;;;;65.38;27.25;;;;;;;-3.20;91.20;100936.06;4993661;28;20037;-77
2020/12/02 03:32:51;;;;;;;67.22;26.90;;;;;;;-2.97;90.88;100955.38;4993445;28;20046;-75
2020/12/02 03:35:16;;;;;;;63.13;26.73;;;;;;;-3.01;90.16;100960.56;4993485;28;20035;-76
2020/12/02 03:37:42;;;;;;;67.75;27.40;;;;;;;-3.23;90.41;100959.56;4975884;28;20071;-75
2020/12/02 03:40:09;;;;;;;68.28;27.10;;;;;;;-3.30;91.03;100960.34;4993482;28;20035;-76
2020/12/02 03:42:35;;;;;;;73.30;27.60;;;;;;;-3.49;91.39;100918.47;4992379;28;20040;-75
2020/12/02 03:45:01;;;;;;;73.30;27.70;;;;;;;-3.38;91.19;100917.69;4993300;28;20062;-82
2020/12/02 03:47:27;;;;;;;76.32;28.25;;;;;;;-3.24;90.53;100932.59;4993578;28;20031;-83
2020/12/02 03:49:53;;;;;;;70.75;28.60;;;;;;;-3.26;90.60;100944.75;4991563;28;20058;-76
2020/12/02 03:52:18;;;;;;;69.43;27.63;;;;;;;-3.45;90.61;100935.06;4993448;28;20047;-77
2020/12/02 03:54:44;;;;;;;69.78;26.50;;;;;;;-3.30;90.82;100944.72;4993266;28;20034;-78
2020/12/02 03:57:09;;;;;;;64.82;25.95;;;;;;;-3.43;90.30;100932.44;4993672;28;20058;-78
2020/12/02 03:59:34;;;;;;;70.95;26.98;;;;;;;-3.28;90.13;100949.09;4993287;28;20397;-78
2020/12/02 04:02:00;;;;;;;73.45;27.65;;;;;;;-3.36;90.32;100947.28;4991993;28;20385;-79
2020/12/02 04:04:25;;;;;;;69.57;26.55;;;;;;;-3.25;89.45;100953.47;4992204;28;20037;-78
2020/12/02 04:06:51;;;;;;;71.85;28.30;;;;;;;-3.30;89.62;100949.94;4993029;28;20456;-78
2020/12/02 04:09:17;;;;;;;64.43;26.92;;;;;;;-3.40;89.73;100945.50;4992171;28;20523;-77
2020/12/02 04:11:43;;;;;;;66.13;25.92;;;;;;;-3.64;89.30;100901.88;4991962;28;20038;-77
2020/12/02 04:14:09;;;;;;;76.07;27.73;;;;;;;-3.42;89.76;100955.06;4993380;28;20046;-77
2020/12/02 04:16:35;;;;;;;72.43;28.33;;;;;;;-3.35;89.53;100951.66;4993926;28;20030;-75
2020/12/02 04:19:00;;;;;;;72.97;28.63;;;;;;;-3.41;89.95;100951.59;4991909;28;20736;-76
2020/12/02 04:21:26;;;;;;;63.42;25.67;;;;;;;-3.42;89.95;100955.94;4994111;28;20114;-77
2020/12/02 04:23:53;;;;;;;69.10;27.20;;;;;;;-3.61;89.58;100959.25;4996587;28;20080;-76
2020/12/02 04:26:18;;;;;;;73.03;27.30;;;;;;;-3.64;89.45;100948.81;4996073;28;20042;-77
2020/12/02 04:28:44;;;;;;;65.30;26.98;;;;;;;-3.73;89.14;100920.91;4996498;28;20026;-76
2020/12/02 04:31:09;;;;;;;72.72;27.63;;;;;;;-3.54;89.12;100951.50;4996876;28;20037;-77
2020/12/02 04:33:35;;;;;;;71.07;27.42;;;;;;;-3.78;89.23;100927.81;4996807;28;20396;-77
2020/12/02 04:36:00;;;;;;;70.63;26.95;;;;;;;-3.49;89.21;100957.59;4996492;28;20034;-77
2020/12/02 04:38:25;;;;;;;72.47;27.40;;;;;;;-3.50;89.41;100971.50;4979617;28;20061;-76
2020/12/02 04:40:51;;;;;;;70.43;26.05;;;;;;;-3.61;89.82;100954.91;4979077;28;20038;-78
2020/12/02 04:43:35;;;;;;;67.25;27.45;;;;;;;-3.51;89.74;100956.72;4995460;28;20041;-76
2020/12/02 04:46:04;;;;;;;70.13;26.83;;;;;;;-3.69;90.30;100959.19;4996513;28;20034;-77
2020/12/02 04:48:32;;;;;;;69.85;28.08;;;;;;;-3.57;89.71;100955.78;4995540;28;20240;-76
2020/12/02 04:51:04;;;;;;;74.35;27.10;;;;;;;-3.60;89.53;100941.00;4994903;28;20057;-77
2020/12/02 04:53:34;;;;;;;68.40;27.27;;;;;;;-3.75;89.33;100936.56;4996535;28;20061;-77
2020/12/02 04:55:59;;;;;;;67.18;27.33;;;;;;;-3.61;89.55;100965.34;4995043;28;20407;-79
2020/12/02 04:58:36;;;;;;;73.00;27.27;;;;;;;-3.67;89.45;100960.06;4996527;28;20044;-77
2020/12/02 05:01:21;;;;;;;75.70;28.60;;;;;;;-3.53;88.57;100955.84;4996374;28;20065;-78
2020/12/02 05:04:17;;;;;;;71.15;28.52;;;;;;;-3.67;88.35;100939.19;4996295;28;20033;-76
2020/12/02 05:06:46;;;;;;;69.18;26.52;;;;;;;-3.62;88.38;100953.16;4996475;28;20035;-76
2020/12/02 05:09:23;;;;;;;70.65;27.88;;;;;;;-3.76;88.32;100949.56;4996301;28;20031;-77
2020/12/02 05:12:04;;;;;;;65.85;25.73;;;;;;;-3.80;88.94;100950.38;4995947;28;20022;-77
2020/12/02 05:14:42;;;;;;;68.18;26.45;;;;;;;-3.80;88.76;100947.78;4996142;28;20120;-78
2020/12/02 05:17:19;;;;;;;61.42;24.35;;;;;;;-3.80;89.05;100953.00;4994703;28;20476;-77
2020/12/02 05:19:48;;;;;;;65.90;26.90;;;;;;;-3.93;89.32;100949.41;4995908;28;20041;-78
2020/12/02 05:22:17;;;;;;;69.40;27.55;;;;;;;-4.10;89.74;100944.03;4995995;28;20038;-76
2020/12/02 05:24:49;;;;;;;67.90;26.30;;;;;;;-4.09;90.24;100950.97;4995931;28;20475;-77
2020/12/02 05:27:18;;;;;;;70.28;26.92;;;;;;;-4.11;90.32;100951.81;4996073;28;20030;-78
2020/12/02 05:30:16;;;;;;;72.63;26.38;;;;;;;-4.01;90.32;100961.47;4996131;28;20036;-76
2020/12/02 05:33:00;;;;;;;67.75;26.80;;;;;;;-4.19;89.61;100917.00;4993996;28;20035;-75
2020/12/02 05:35:28;;;;;;;66.38;26.83;;;;;;;-4.03;89.55;100945.84;4994838;28;20022;-80
2020/12/02 05:37:55;;;;;;;67.28;26.25;;;;;;;-4.23;89.26;100903.09;4995952;28;20392;-82
2020/12/02 05:40:22;;;;;;;69.32;25.60;;;;;;;-4.09;89.13;100924.91;4996154;28;20237;-84
2020/12/02 05:42:54;;;;;;;75.53;26.58;;;;;;;-3.91;88.89;100936.38;4994960;28;20038;-84
2020/12/02 05:45:35;;;;;;;62.20;25.48;;;;;;;-3.80;88.82;100966.03;4995991;28;20035;-78
2020/12/02 05:48:01;;;;;;;69.28;25.23;;;;;;;-3.76;89.38;100971.31;4995094;28;20030;-77
2020/12/02 05:50:26;;;;;;;67.05;27.00;;;;;;;-3.71;89.20;100965.25;4978207;28;20066;-76
2020/12/02 05:53:17;;;;;;;77.50;28.30;;;;;;;-3.75;88.88;100964.34;4978024;28;20034;-79
2020/12/02 05:55:43;;;;;;;64.88;26.52;;;;;;;-3.89;88.92;100948.56;4994663;28;20432;-78
2020/12/02 05:58:08;;;;;;;75.25;28.60;;;;;;;-3.89;89.60;100965.94;4994092;28;20043;-76
2020/12/02 06:00:34;;;;;;;72.82;27.00;;;;;;;-3.95;89.33;100963.28;4995516;28;20140;-77
2020/12/02 06:03:01;;;;;;;66.18;25.27;;;;;;;-3.92;89.35;100965.91;4995222;28;20034;-79
2020/12/02 06:05:28;;;;;;;69.45;27.85;;;;;;;-4.10;89.53;100959.66;4994337;28;20041;-76
2020/12/02 06:07:58;;;;;;;72.72;28.10;;;;;;;-4.01;89.71;100984.94;4994901;28;20034;-80
2020/12/02 06:10:43;;;;;;;69.32;28.55;;;;;;;-4.03;90.46;100982.31;4995241;28;20026;-82
2020/12/02 06:13:14;;;;;;;73.00;29.00;;;;;;;-4.09;90.57;100982.25;4991964;28;20041;-78
2020/12/02 06:15:40;;;;;;;81.43;27.70;;;;;;;-3.95;90.56;100973.72;4995169;28;20030;-75
2020/12/02 06:18:21;;;;;;;75.20;28.17;;;;;;;-3.94;90.74;100978.06;4977092;28;20037;-79
2020/12/02 06:20:49;;;;;;;73.80;28.58;;;;;;;-3.95;91.03;100976.31;4994112;28;20541;-78
2020/12/02 06:23:15;;;;;;;79.30;29.20;;;;;;;-4.04;91.44;100983.19;4993736;28;20061;-77
2020/12/02 06:25:55;;;;;;;70.35;26.88;;;;;;;-3.87;91.68;100977.25;4977560;28;20037;-77
2020/12/02 06:28:30;;;;;;;76.28;27.33;;;;;;;-3.85;91.11;100981.63;4993655;28;20403;-74
2020/12/02 06:31:02;;;;;;;77.57;28.23;;;;;;;-4.00;91.55;100960.63;4994335;28;20041;-74
2020/12/02 06:33:36;;;;;;;73.03;27.80;;;;;;;-3.93;91.35;100964.19;4993690;28;20038;-77
2020/12/02 06:36:10;;;;;;;;;;;;;;;-3.85;91.75;100984.25;4993376;28;20046;-77
2020/12/02 06:38:36;;;;;;;77.97;25.60;;;;;;;-3.88;91.43;100970.28;4994570;28;19953;-77
2020/12/02 06:41:01;;;;;;;69.35;27.45;;;;;;;-3.81;90.76;100972.97;4993157;28;20066;-75
2020/12/02 06:43:37;;;;;;;68.22;27.80;;;;;;;-4.06;90.85;100939.69;4994562;28;20113;-76
2020/12/02 06:46:04;;;;;;;68.97;26.65;;;;;;;-3.74;90.94;100963.50;4994576;28;20460;-75
2020/12/02 06:48:36;;;;;;;68.65;27.30;;;;;;;-3.71;90.50;100963.50;4993024;28;20093;-76
2020/12/02 06:51:08;;;;;;;66.78;25.83;;;;;;;-3.64;90.64;100980.09;4994451;28;20043;-76
2020/12/02 06:53:34;;;;;;;73.55;27.60;;;;;;;-3.81;90.36;100954.72;4994463;28;20157;-76
2020/12/02 06:56:04;;;;;;;62.35;25.92;;;;;;;-3.76;90.80;100970.44;4994072;28;20129;-75
2020/12/02 06:58:30;;;;;;;66.28;27.95;;;;;;;-3.64;90.68;100982.69;4994424;28;20472;-77
2020/12/02 07:00:59;;;;;;;67.75;27.48;;;;;;;-3.61;90.94;100980.97;4976602;28;20070;-76
2020/12/02 07:03:34;;;;;;;77.55;28.42;;;;;;;-3.68;91.17;100984.38;4994607;28;20026;-76
2020/12/02 07:06:21;;;;;;;79.88;29.60;;;;;;;-3.78;90.92;100970.38;4994135;28;20072;-75
2020/12/02 07:08:49;;;;;;;74.57;27.65;;;;;;;-3.57;90.99;100990.59;4994169;28;20030;-75
2020/12/02 07:11:18;;;;;;;76.20;28.30;;;;;;;-3.51;90.56;100998.47;4992756;28;20512;-74
2020/12/02 07:13:48;;;;;;;73.28;28.63;;;;;;;-3.61;90.38;100974.91;4994178;28;20057;-74
2020/12/02 07:16:34;;;;;;;73.78;29.02;;;;;;;-3.46;90.13;100994.16;4992752;28;20034;-74
2020/12/02 07:19:06;;;;;;;66.70;27.30;;;;;;;-3.54;90.09;100967.16;4992812;28;20061;-73
2020/12/02 07:21:50;;;;;;;70.60;28.95;;;;;;;-3.29;90.05;101004.72;4993906;28;20038;-78
2020/12/02 07:24:20;;;;;;;71.88;28.65;;;;;;;-3.34;90.05;100989.91;4992778;28;20034;-76
2020/12/02 07:26:45;;;;;;;72.75;28.92;;;;;;;-3.53;89.62;100934.13;4994188;28;20084;-72
2020/12/02 07:29:15;;;;;;;71.30;28.90;;;;;;;-3.16;89.52;101000.50;4992414;28;20039;-72
2020/12/02 07:31:41;;;;;;;70.22;28.33;;;;;;;-3.14;89.65;101003.97;4993001;28;20041;-71
2020/12/02 07:34:20;;;;;;;72.82;27.88;;;;;;;-3.10;89.62;101008.34;4992441;28;20043;-73
2020/12/02 07:36:45;;;;;;;72.45;27.33;;;;;;;-3.18;89.47;100983.97;4994008;28;20081;-71
2020/12/02 07:39:17;;;;;;;77.13;29.40;;;;;;;-3.05;89.17;101001.44;4993774;28;20062;-76
2020/12/02 07:41:53;;;;;;;68.10;28.60;;;;;;;-3.07;88.79;100984.91;4992470;28;20431;-74
2020/12/02 07:44:19;;;;;;;71.15;30.27;;;;;;;-3.03;89.56;100998.84;4993455;28;20129;-77
2020/12/02 07:46:50;;;;;;;73.03;28.25;;;;;;;-2.86;88.78;100998.97;4993493;28;20443;-72
2020/12/02 07:49:17;;;;;;;73.05;29.40;;;;;;;-3.11;88.67;100945.72;4993278;28;20369;-75
2020/12/02 07:51:49;;;;;;;68.57;29.08;;;;;;;-2.84;88.84;100989.38;4992305;28;20443;-73
2020/12/02 07:54:25;;;;;;;73.20;29.30;;;;;;;-2.93;88.76;100962.34;4991612;28;20429;-72
2020/12/02 07:56:56;;;;;;;74.80;28.85;;;;;;;-2.73;88.52;100972.03;4995152;28;20026;-72
2020/12/02 07:59:28;;;;;;;71.22;27.60;;;;;;;-2.69;87.84;100976.44;4997519;28;20550;-72
2020/12/02 08:01:56;;;;;;;77.88;30.30;;;;;;;-2.71;88.49;100984.22;4997873;28;20114;-72
2020/12/02 08:04:22;;;;;;;67.93;29.65;;;;;;;-2.59;88.29;100991.28;4997441;28;20056;-72
2020/12/02 08:07:09;;;;;;;66.93;27.33;;;;;;;-2.54;87.71;100975.63;4997735;28;20077;-72
2020/12/02 08:09:40;;;;;;;64.57;27.05;;;;;;;-2.55;87.72;100974.75;5000612;28;20026;-73
2020/12/02 08:12:30;;;;;;;64.78;26.88;;;;;;;-2.49;87.78;100972.19;5006856;28;20026;-72
2020/12/02 08:15:08;;;;;;;72.22;28.65;;;;;;;-2.62;87.72;100946.84;4997755;28;20066;-72
2020/12/02 08:17:34;;;;;;;62.38;27.10;;;;;;;-2.48;87.46;100970.44;4998980;28;20026;-71
2020/12/02 08:20:18;;;;;;;69.05;28.05;;;;;;;-2.51;87.30;100973.91;5002657;28;20061;-74
2020/12/02 08:22:49;;;;;;;67.60;28.17;;;;;;;-2.38;86.93;100977.44;5002824;28;20150;-72
2020/12/02 08:25:34;;;;;;;70.05;27.48;;;;;;;-2.31;87.24;100984.44;4999437;28;20030;-73
2020/12/02 08:28:05;;;;;;;70.15;28.90;;;;;;;-2.56;87.06;100946.88;5002818;28;20492;-73
2020/12/02 08:30:30;;;;;;;67.10;27.40;;;;;;;-2.36;86.85;100979.19;4999428;28;20034;-72
2020/12/02 08:33:15;;;;;;;69.22;28.23;;;;;;;-2.32;86.80;100985.28;4998138;28;20121;-72
2020/12/02 08:35:49;;;;;;;66.32;30.10;;;;;;;-2.33;86.57;100980.94;4997499;28;20034;-72
2020/12/02 08:38:16;;;;;;;79.82;31.67;;;;;;;-2.37;86.71;100972.22;4997286;28;20081;-73
2020/12/02 08:40:50;;;;;;;70.70;31.00;;;;;;;-2.28;86.74;100989.66;4997140;28;20468;-72
2020/12/02 08:43:28;;;;;;;70.85;29.55;;;;;;;-2.28;86.43;100978.34;4996681;28;20054;-72
2020/12/02 08:46:02;;;;;;;73.35;30.10;;;;;;;-2.20;86.75;100989.72;4995802;28;20038;-72
2020/12/02 08:48:28;;;;;;;64.68;28.33;;;;;;;-2.16;86.34;100992.31;4997555;28;20445;-73
2020/12/02 08:50:54;;;;;;;70.90;28.52;;;;;;;-2.44;86.28;100928.63;4996813;28;20078;-73
2020/12/02 08:53:28;;;;;;;61.10;26.48;;;;;;;-2.34;85.17;100953.94;4996450;28;20097;-72
2020/12/02 08:55:54;;;;;;;54.67;24.67;;;;;;;-2.01;84.32;100970.59;4997113;28;20030;-73
2020/12/02 08:58:20;;;;;;;58.58;23.65;;;;;;;-1.88;83.83;100976.72;4995271;28;20040;-73
2020/12/02 09:00:46;;;;;;;65.93;24.75;;;;;;;-2.16;84.38;100936.56;4995612;28;20045;-72
2020/12/02 09:03:11;;;;;;;57.40;24.70;;;;;;;-2.12;84.96;100954.03;4996392;28;20423;-72
2020/12/02 09:05:37;;;;;;;55.65;24.38;;;;;;;-2.17;85.53;100940.03;4996580;28;20093;-72
2020/12/02 09:08:03;;;;;;;60.42;24.10;;;;;;;-1.85;83.52;100964.50;4994958;28;20357;-75
2020/12/02 09:10:28;;;;;;;55.40;22.67;;;;;;;-1.81;82.90;100954.94;4996516;28;20065;-73
2020/12/02 09:12:54;;;;;;;57.83;24.40;;;;;;;-1.90;82.95;100924.41;4995049;28;20046;-72
2020/12/02 09:15:19;;;;;;;52.05;24.80;;;;;;;-1.98;83.39;100926.16;4996337;28;20465;-72
2020/12/02 09:17:45;;;;;;;55.42;23.58;;;;;;;-1.78;83.00;100963.66;4996724;28;20027;-72
2020/12/02 09:20:10;;;;;;;61.33;24.20;;;;;;;-1.66;83.16;100959.31;4996193;28;20038;-72
2020/12/02 09:22:36;;;;;;;56.63;23.88;;;;;;;-1.94;83.10;100893.88;4978814;28;20499;-72
2020/12/02 09:25:01;;;;;;;55.30;22.42;;;;;;;-1.64;83.41;100931.41;4996717;28;20486;-72
2020/12/02 09:27:27;;;;;;;53.95;23.77;;;;;;;-1.64;82.86;100915.69;4996161;28;20026;-73
2020/12/02 09:29:53;;;;;;;56.95;23.83;;;;;;;-1.60;82.48;100902.63;4996303;28;20045;-73
2020/12/02 09:32:19;;;;;;;58.63;23.83;;;;;;;-1.41;82.43;100923.56;4994964;28;20042;-72
2020/12/02 09:34:46;;;;;;;52.65;23.73;;;;;;;-1.72;82.57;100860.78;4996388;28;20187;-73
2020/12/02 09:37:13;;;;;;;57.08;25.40;;;;;;;-1.26;82.51;100924.41;4995552;28;20038;-72
2020/12/02 09:39:40;;;;;;;52.28;23.38;;;;;;;-1.12;82.12;100920.91;4996093;28;20448;-73
2020/12/02 09:42:08;;;;;;;53.60;23.20;;;;;;;-1.05;81.32;100918.28;4996043;28;20037;-75
2020/12/02 09:44:39;;;;;;;56.10;23.77;;;;;;;-1.19;80.90;100873.78;4996107;28;20030;-73
2020/12/02 09:47:11;;;;;;;48.65;22.77;;;;;;;-0.96;81.31;100901.66;4996040;28;20031;-72
2020/12/02 09:49:38;;;;;;;54.60;22.85;;;;;;;-1.11;80.54;100859.81;4995643;28;20484;-72
2020/12/02 09:52:10;;;;;;;51.38;23.85;;;;;;;-0.75;80.09;100922.56;4995740;28;20093;-73
2020/12/02 09:54:47;;;;;;;59.75;24.67;;;;;;;-0.75;80.69;100896.34;4995860;28;20491;-72
2020/12/02 09:57:17;;;;;;;51.60;22.98;;;;;;;-0.63;80.11;100917.25;4995453;28;20527;-72
2020/12/02 09:59:42;;;;;;;50.13;22.95;;;;;;;-0.83;80.04;100871.94;4995864;28;20084;-74
2020/12/02 10:02:23;;;;;;;49.15;21.67;;;;;;;-0.48;79.47;100899.72;4995251;28;20042;-73
2020/12/02 10:04:48;;;;;;;30.73;13.30;;;;;;;-0.13;74.11;100891.66;4995664;28;20034;-72
2020/12/02 10:07:42;;;;;;;28.13;14.38;;;;;;;-0.16;73.41;100876.81;4995556;28;20080;-72
2020/12/02 10:10:35;;;;;;;29.65;13.68;;;;;;;0.06;72.28;100897.66;4992005;28;20073;-73
2020/12/02 10:13:29;;;;;;;23.45;12.20;;;;;;;0.08;71.17;100891.50;4995430;28;20034;-73
2020/12/02 10:16:25;;;;;;;26.55;13.48;;;;;;;0.14;70.43;100891.47;4955132;28;20043;-72
2020/12/02 10:18:56;;;;;;;23.77;10.70;;;;;;;0.14;69.96;100875.72;4994581;28;20074;-72
2020/12/02 10:21:56;;;;;;;25.45;11.73;;;;;;;0.25;69.75;100865.16;4994802;28;20461;-72
2020/12/02 10:24:39;;;;;;;29.77;11.55;;;;;;;0.28;68.88;100862.50;4994787;28;20365;-72
2020/12/02 10:27:23;;;;;;;28.77;12.73;;;;;;;0.22;69.27;100863.44;4995020;28;20026;-73
2020/12/02 10:30:14;;;;;;;26.98;12.35;;;;;;;0.24;68.32;100860.78;4995386;28;20034;-72
2020/12/02 10:32:39;;;;;;;27.92;12.68;;;;;;;0.37;69.25;100867.66;4994360;28;20045;-72
2020/12/02 10:35:05;;;;;;;28.27;13.38;;;;;;;0.42;68.82;100854.50;4994940;28;20030;-72
2020/12/02 10:37:36;;;;;;;28.70;13.32;;;;;;;0.50;68.65;100853.56;4993424;28;20038;-73
2020/12/02 10:40:06;;;;;;;31.33;13.00;;;;;;;0.49;68.22;100849.19;4994930;28;20030;-72
2020/12/02 10:42:41;;;;;;;24.38;12.18;;;;;;;0.49;68.14;100830.81;4994617;28;20034;-73
2020/12/02 10:45:10;;;;;;;31.98;12.80;;;;;;;0.59;68.33;100836.84;4994786;28;20035;-73
2020/12/02 10:48:15;;;;;;;26.90;12.52;;;;;;;0.67;68.02;100834.13;4994715;28;20050;-72
2020/12/02 10:50:43;;;;;;;24.20;11.80;;;;;;;0.44;66.60;100779.25;4994814;28;20053;-72
2020/12/02 10:53:15;;;;;;;22.90;11.52;;;;;;;0.64;66.65;100814.03;4994531;28;20407;-73
2020/12/02 10:55:41;;;;;;;24.70;12.27;;;;;;;0.79;67.18;100823.50;4994239;28;20039;-73
2020/12/02 10:58:28;;;;;;;25.95;12.35;;;;;;;0.83;66.46;100818.19;4994416;28;20037;-72
2020/12/02 11:00:58;;;;;;;26.67;13.10;;;;;;;0.75;65.95;100817.41;4994772;28;20081;-72
2020/12/02 11:03:49;;;;;;;22.13;10.88;;;;;;;0.61;64.99;100802.72;4994267;28;20380;-72
2020/12/02 11:06:34;;;;;;;21.63;10.85;;;;;;;0.51;65.78;100792.31;4991108;28;20046;-74
2020/12/02 11:09:18;;;;;;;28.50;12.77;;;;;;;0.66;66.21;100803.50;4993994;28;20030;-71
2020/12/02 11:11:58;;;;;;;;;;;;;;;0.64;65.74;100802.66;4994725;28;20030;-72
2020/12/02 11:14:42;;;;;;;25.90;11.13;;;;;;;0.73;64.98;100789.44;4993988;28;19972;-72
2020/12/02 11:17:23;;;;;;;24.60;11.60;;;;;;;0.73;65.14;100786.81;4994310;28;20031;-72
2020/12/02 11:20:07;;;;;;;27.65;12.13;;;;;;;0.84;64.77;100791.03;4994074;28;20073;-72
2020/12/02 11:22:44;;;;;;;25.27;12.50;;;;;;;0.98;64.39;100777.75;4992792;28;20396;-72
2020/12/02 11:25:53;;;;;;;26.42;12.40;;;;;;;0.99;65.06;100776.88;4994176;28;20038;-73
2020/12/02 11:28:18;;;;;;;30.95;13.30;;;;;;;0.93;65.06;100742.78;4946755;28;20038;-74
2020/12/02 11:30:45;;;;;;;26.10;13.45;;;;;;;1.03;64.92;100740.91;4993455;28;20125;-71